Searcy, Arkansas
Current Conditions -  °F | °C
As of 2:56 AM on Wednesday 22 Oct 2014 (Local Time) from KSRC Reporting Station
Clear Clear  
Wind Chill: 52°   Ceiling: Unl
Heat Index: 52°   Visibility: 10mi
Dew Point: 47°   Wind: 3mph
Humidity: 83%   Direction: 360°N
Pressure: 30.16"   Gusts: NA
Location:  35.25°N, 91.74°W
Report Text: KSRC 220756Z AUTO 36003KT 10SM CLR 11/08 A3016 RMK AO2 SLP216 T01110083 TSNO
Loading
Personal Weather Stations






























Interactive Weather Map
Tropical Storm Tracking
New forecast layout! Learn more

10-Day Weather Forecast

Advertisements
Track Severe Weather on mobile